createdAt,value
2019-02-12T00:01:32.431Z,6.08
2019-02-12T00:04:07.661Z,6.72
2019-02-12T00:06:42.685Z,5.42
2019-02-12T00:09:17.717Z,8.23
2019-02-12T00:11:53.882Z,7.03
2019-02-12T00:14:28.812Z,6.03
2019-02-12T00:17:04.091Z,6.37
2019-02-12T00:19:40.069Z,6.60
2019-02-12T00:22:15.648Z,7.42
2019-02-12T00:24:50.791Z,7.55
2019-02-12T00:27:27.473Z,6.65
2019-02-12T00:30:02.921Z,6.33
2019-02-12T00:32:38.306Z,5.58
2019-02-12T00:35:13.392Z,7.05
2019-02-12T00:37:48.550Z,7.17
2019-02-12T00:40:24.159Z,7.80
2019-02-12T00:42:59.217Z,9.25
2019-02-12T00:45:33.780Z,5.72
2019-02-12T00:48:09.699Z,5.53
2019-02-12T00:50:44.332Z,11.65
2019-02-12T00:53:19.097Z,5.67
2019-02-12T00:55:53.891Z,4.85
2019-02-12T00:58:29.460Z,3.25
2019-02-12T01:01:05.983Z,7.60
2019-02-12T01:03:41.563Z,4.45
2019-02-12T01:06:16.468Z,4.40
2019-02-12T01:08:51.515Z,5.03
2019-02-12T01:11:26.462Z,5.53
2019-02-12T01:14:01.964Z,6.15
2019-02-12T01:16:38.044Z,6.67
2019-02-12T01:19:13.254Z,3.47
2019-02-12T01:21:49.448Z,3.87
2019-02-12T01:24:23.810Z,7.15
2019-02-12T01:27:00.562Z,4.28
2019-02-12T01:29:35.478Z,4.80
2019-02-12T01:32:09.871Z,5.72
2019-02-12T01:34:44.228Z,6.05
2019-02-12T01:37:19.376Z,5.72
2019-02-12T01:39:56.256Z,6.47
2019-02-12T01:42:32.587Z,6.97
2019-02-12T01:45:07.287Z,9.20
2019-02-12T01:47:42.895Z,6.12
2019-02-12T01:50:18.256Z,4.15
2019-02-12T01:52:53.261Z,6.92
2019-02-12T01:55:27.997Z,6.85
2019-02-12T01:58:02.586Z,4.78
2019-02-12T02:00:38.343Z,3.08
2019-02-12T02:03:13.707Z,3.72
2019-02-12T02:05:48.725Z,7.62
2019-02-12T02:08:24.348Z,7.67
2019-02-12T02:11:00.138Z,3.58
2019-02-12T02:13:35.741Z,3.90
2019-02-12T02:16:11.033Z,4.22
2019-02-12T02:18:45.955Z,5.58
2019-02-12T02:21:21.629Z,4.40
2019-02-12T02:23:56.860Z,4.25
2019-02-12T02:26:32.111Z,4.33
2019-02-12T02:29:06.372Z,3.75
2019-02-12T02:31:41.457Z,6.72
2019-02-12T02:34:17.978Z,5.53
2019-02-12T02:36:52.887Z,4.00
2019-02-12T02:39:29.336Z,3.83
2019-02-12T02:42:04.354Z,4.12
2019-02-12T02:44:39.394Z,6.55
2019-02-12T02:47:14.879Z,5.83
2019-02-12T02:49:50.782Z,4.25
2019-02-12T02:52:26.864Z,7.80
2019-02-12T02:55:02.901Z,5.42
2019-02-12T02:57:38.362Z,6.45
2019-02-12T03:00:13.858Z,6.00
2019-02-12T03:02:50.229Z,9.05
2019-02-12T03:05:26.408Z,4.62
2019-02-12T03:08:02.665Z,6.40
2019-02-12T03:10:39.957Z,4.92
2019-02-12T03:13:15.518Z,5.28
2019-02-12T03:15:50.463Z,7.72
2019-02-12T03:18:24.795Z,5.25
2019-02-12T03:20:59.950Z,7.67
2019-02-12T03:23:36.627Z,5.62
2019-02-12T03:26:11.520Z,5.95
2019-02-12T03:28:47.702Z,6.28
2019-02-12T03:31:23.765Z,5.00
2019-02-12T03:33:58.795Z,5.17
2019-02-12T03:36:34.771Z,7.87
2019-02-12T03:39:09.755Z,8.55
2019-02-12T03:41:45.333Z,7.80
2019-02-12T03:44:20.365Z,3.83
2019-02-12T03:46:56.813Z,5.87
2019-02-12T03:49:32.032Z,4.08
2019-02-12T03:52:12.837Z,5.22
2019-02-12T03:54:44.831Z,6.35
2019-02-12T03:57:19.773Z,6.90
2019-02-12T03:59:55.190Z,10.80
2019-02-12T04:02:29.634Z,7.33
2019-02-12T04:05:05.106Z,9.80
2019-02-12T04:07:40.348Z,11.53
2019-02-12T04:10:15.435Z,7.72
2019-02-12T04:12:51.350Z,6.90
2019-02-12T04:15:27.285Z,11.05
2019-02-12T04:18:03.799Z,8.50
2019-02-12T04:20:39.833Z,7.95
2019-02-12T04:23:14.783Z,6.40
2019-02-12T04:25:51.137Z,7.17
2019-02-12T04:28:26.706Z,12.18
2019-02-12T04:31:01.747Z,6.22
2019-02-12T04:33:38.231Z,14.55
2019-02-12T04:36:15.101Z,8.20
2019-02-12T04:38:51.391Z,12.05
2019-02-12T04:41:28.311Z,11.95
2019-02-12T04:44:04.396Z,9.58
2019-02-12T04:46:39.607Z,11.53
2019-02-12T04:49:15.571Z,10.55
2019-02-12T04:51:50.627Z,9.70
2019-02-12T04:54:25.661Z,8.60
2019-02-12T04:57:00.934Z,11.90
2019-02-12T04:59:37.499Z,10.68
2019-02-12T05:02:13.810Z,12.40
2019-02-12T05:04:48.731Z,16.27
2019-02-12T05:07:23.393Z,13.15
2019-02-12T05:09:59.596Z,10.88
2019-02-12T05:12:35.011Z,8.05
2019-02-12T05:15:10.304Z,14.23
2019-02-12T05:17:45.439Z,14.78
2019-02-12T05:20:20.820Z,9.48
2019-02-12T05:22:57.018Z,16.40
2019-02-12T05:25:32.835Z,10.55
2019-02-12T05:28:07.922Z,13.43
2019-02-12T05:30:42.541Z,15.20
2019-02-12T05:33:18.462Z,15.10
2019-02-12T05:35:54.513Z,8.48
2019-02-12T05:38:29.998Z,9.80
2019-02-12T05:41:05.166Z,13.32
2019-02-12T05:43:40.330Z,9.00
2019-02-12T05:46:16.139Z,9.63
2019-02-12T05:48:51.719Z,12.25
2019-02-12T05:51:27.858Z,12.47
2019-02-12T05:54:03.608Z,10.53
2019-02-12T05:56:39.038Z,13.22
2019-02-12T05:59:19.024Z,14.10
2019-02-12T06:02:01.865Z,10.30
2019-02-12T06:04:42.028Z,8.10
2019-02-12T06:07:17.756Z,10.48
2019-02-12T06:09:53.229Z,9.40
2019-02-12T06:12:28.987Z,13.03
2019-02-12T06:15:05.062Z,10.50
2019-02-12T06:17:40.537Z,9.63
2019-02-12T06:20:15.808Z,13.25
2019-02-12T06:22:51.161Z,8.55
2019-02-12T06:25:26.203Z,8.35
2019-02-12T06:28:01.317Z,11.53
2019-02-12T06:30:37.592Z,10.43
2019-02-12T06:33:12.813Z,11.93
2019-02-12T06:35:47.273Z,8.93
2019-02-12T06:38:22.509Z,10.08
2019-02-12T06:40:59.798Z,10.13
2019-02-12T06:43:36.286Z,8.15
2019-02-12T06:46:11.949Z,14.53
2019-02-12T06:48:47.850Z,14.98
2019-02-12T06:51:22.854Z,11.68
2019-02-12T06:53:58.487Z,11.57
2019-02-12T06:56:36.395Z,14.85
2019-02-12T06:59:11.548Z,12.88
2019-02-12T07:01:47.908Z,9.78
2019-02-12T07:04:31.766Z,10.80
2019-02-12T07:08:03.469Z,9.38
2019-02-12T07:10:42.295Z,11.10
2019-02-12T07:13:57.095Z,8.83
2019-02-12T07:17:36.247Z,12.40
2019-02-12T07:21:03.695Z,11.73
2019-02-12T07:24:26.423Z,8.38
2019-02-12T07:27:59.003Z,13.88
2019-02-12T07:31:17.290Z,14.47
2019-02-12T07:34:43.602Z,9.20
2019-02-12T07:38:01.739Z,9.23
2019-02-12T07:41:45.123Z,12.33
2019-02-12T07:44:50.628Z,8.03
2019-02-12T07:48:06.803Z,9.08
2019-02-12T07:51:48.018Z,5.67
2019-02-12T07:54:58.358Z,7.85
2019-02-12T07:58:33.130Z,7.55
2019-02-12T08:01:37.158Z,13.25
2019-02-12T08:05:13.466Z,6.12
2019-02-12T08:08:58.574Z,9.73
2019-02-12T08:12:12.303Z,12.65
2019-02-12T08:15:51.473Z,6.87
2019-02-12T08:18:50.041Z,14.33
2019-02-12T08:22:06.341Z,7.30
2019-02-12T08:25:18.236Z,15.03
2019-02-12T08:29:21.073Z,12.82
2019-02-12T08:32:32.733Z,12.80
2019-02-12T08:35:59.981Z,12.07
2019-02-12T08:39:38.003Z,7.83
2019-02-12T08:42:57.706Z,9.35
2019-02-12T09:03:06.887Z,14.05
2019-02-12T09:06:32.076Z,10.95
2019-02-12T09:09:59.110Z,10.55
2019-02-12T09:13:48.718Z,9.45
2019-02-12T09:17:42.902Z,6.95
2019-02-12T09:20:50.463Z,10.45
2019-02-12T09:24:23.861Z,6.03
2019-02-12T09:27:51.199Z,11.33
2019-02-12T09:31:25.701Z,10.35
2019-02-12T09:35:04.123Z,14.18
2019-02-12T09:38:31.605Z,9.13
2019-02-12T09:41:41.221Z,7.83
2019-02-12T09:45:04.987Z,10.78
2019-02-12T09:48:23.603Z,8.00
2019-02-12T09:51:39.921Z,6.67
2019-02-12T09:55:12.767Z,9.68
2019-02-12T09:58:08.062Z,12.58
2019-02-12T10:01:21.934Z,14.35
2019-02-12T10:05:20.901Z,10.10
2019-02-12T10:09:09.553Z,8.08
2019-02-12T10:12:39.755Z,9.10
2019-02-12T10:16:06.621Z,9.73
2019-02-12T10:19:42.558Z,8.90
2019-02-12T10:22:56.047Z,8.95
2019-02-12T10:25:39.550Z,9.90
2019-02-12T10:29:25.658Z,10.43
2019-02-12T10:31:55.061Z,8.50
2019-02-12T10:34:28.742Z,14.03
2019-02-12T10:37:02.442Z,10.72
2019-02-12T10:39:36.214Z,6.33
2019-02-12T10:42:10.443Z,9.63
2019-02-12T10:44:44.350Z,12.93
2019-02-12T10:47:18.732Z,12.93
2019-02-12T10:49:52.416Z,9.38
2019-02-12T10:52:27.124Z,8.45
2019-02-12T10:55:01.236Z,11.25
2019-02-12T10:57:35.653Z,9.30
2019-02-12T11:00:15.131Z,11.30
2019-02-12T11:02:50.378Z,13.43
2019-02-12T11:05:25.220Z,10.38
2019-02-12T11:07:59.759Z,9.98
2019-02-12T11:10:32.755Z,7.60
2019-02-12T11:13:06.588Z,7.20
2019-02-12T11:15:39.384Z,7.00
2019-02-12T11:18:13.302Z,10.15
2019-02-12T11:20:47.518Z,8.85
2019-02-12T11:23:22.049Z,7.58
2019-02-12T11:25:55.621Z,5.40
2019-02-12T11:28:30.289Z,9.13
2019-02-12T11:31:03.651Z,9.15
2019-02-12T11:33:37.705Z,7.42
2019-02-12T11:36:11.948Z,9.15
2019-02-12T11:38:46.742Z,9.03
2019-02-12T11:41:26.481Z,7.70
2019-02-12T11:44:00.877Z,8.83
2019-02-12T11:46:36.254Z,10.72
2019-02-12T11:49:10.682Z,8.40
2019-02-12T11:51:44.910Z,7.45
2019-02-12T11:54:18.942Z,8.65
2019-02-12T11:56:55.236Z,5.97
2019-02-12T11:59:30.882Z,6.85
2019-02-12T12:02:06.198Z,15.38
2019-02-12T12:04:41.118Z,9.05
2019-02-12T12:07:15.983Z,10.82
2019-02-12T12:09:49.828Z,7.37
2019-02-12T12:12:24.652Z,8.28
2019-02-12T12:15:00.269Z,10.10
2019-02-12T12:17:33.499Z,9.30
2019-02-12T12:20:08.937Z,11.90
2019-02-12T12:22:44.123Z,10.28
2019-02-12T12:25:19.017Z,7.45
2019-02-12T12:27:54.248Z,9.85
2019-02-12T12:30:28.700Z,11.55
2019-02-12T12:33:03.429Z,12.35
2019-02-12T12:35:37.174Z,9.58
2019-02-12T12:38:13.451Z,11.80
2019-02-12T12:40:48.115Z,13.40
2019-02-12T12:43:23.365Z,6.03
2019-02-12T12:45:58.752Z,8.63
2019-02-12T12:48:33.347Z,9.80
2019-02-12T12:51:08.548Z,9.00
2019-02-12T12:53:43.202Z,9.20
2019-02-12T12:56:16.608Z,6.83
2019-02-12T12:58:49.850Z,10.18
2019-02-12T13:01:23.593Z,6.80
2019-02-12T13:03:56.486Z,9.53
2019-02-12T13:06:30.584Z,7.22
2019-02-12T13:09:06.043Z,12.90
2019-02-12T13:11:39.880Z,8.38
2019-02-12T13:14:14.324Z,13.45
2019-02-12T13:16:48.805Z,8.70
2019-02-12T13:19:21.424Z,14.38
2019-02-12T13:21:54.827Z,7.28
2019-02-12T13:24:29.182Z,8.63
2019-02-12T13:27:01.648Z,6.95
2019-02-12T13:29:34.513Z,9.23
2019-02-12T13:32:09.040Z,6.60
2019-02-12T13:34:42.317Z,8.13
2019-02-12T13:37:16.231Z,8.00
2019-02-12T13:39:49.172Z,5.78
2019-02-12T13:42:21.667Z,9.48
2019-02-12T13:44:56.273Z,7.50
2019-02-12T13:47:31.419Z,7.22
2019-02-12T13:50:08.517Z,6.25
2019-02-12T13:52:41.493Z,5.40
2019-02-12T13:55:17.359Z,9.58
2019-02-12T13:57:49.124Z,7.85
2019-02-12T14:00:22.586Z,8.13
2019-02-12T14:02:56.116Z,7.65
2019-02-12T14:05:28.745Z,5.03
2019-02-12T14:08:01.973Z,5.87
2019-02-12T14:10:36.330Z,7.12
2019-02-12T14:13:10.705Z,8.08
2019-02-12T14:15:44.425Z,8.88
2019-02-12T14:18:18.498Z,6.42
2019-02-12T14:20:53.821Z,8.93
2019-02-12T14:23:28.520Z,8.95
2019-02-12T14:26:03.676Z,7.08
2019-02-12T14:28:37.942Z,8.00
2019-02-12T14:31:11.990Z,6.62
2019-02-12T14:33:46.149Z,8.73
2019-02-12T14:36:20.098Z,8.78
2019-02-12T14:38:54.221Z,7.67
2019-02-12T14:41:28.446Z,7.20
2019-02-12T14:44:02.869Z,9.65
2019-02-12T14:46:36.456Z,5.87
2019-02-12T14:49:10.770Z,5.80
2019-02-12T14:51:45.041Z,6.12
2019-02-12T14:54:19.134Z,6.45
2019-02-12T14:56:52.254Z,7.53
2019-02-12T14:59:26.062Z,9.40
2019-02-12T15:02:00.175Z,7.72
2019-02-12T15:04:34.526Z,6.85
2019-02-12T15:07:07.558Z,8.63
2019-02-12T15:09:41.892Z,8.78
2019-02-12T15:12:16.207Z,7.05
2019-02-12T15:14:50.511Z,8.83
2019-02-12T15:17:25.406Z,6.25
2019-02-12T15:19:59.762Z,6.92
2019-02-12T15:22:33.851Z,7.85
2019-02-12T15:25:06.723Z,5.87
2019-02-12T15:27:41.060Z,6.65
2019-02-12T15:30:15.584Z,8.95
2019-02-12T15:32:49.852Z,6.97
2019-02-12T15:35:23.647Z,10.43
2019-02-12T15:37:58.023Z,5.58
2019-02-12T15:40:32.114Z,8.80
2019-02-12T15:43:06.472Z,9.38
2019-02-12T15:45:39.641Z,10.85
2019-02-12T15:48:13.864Z,13.65
2019-02-12T15:50:47.690Z,10.53
2019-02-12T15:53:20.863Z,5.60
2019-02-12T15:55:55.176Z,9.05
2019-02-12T15:58:30.261Z,8.00
2019-02-12T16:01:06.087Z,9.23
2019-02-12T16:03:40.724Z,13.13
2019-02-12T16:06:13.693Z,8.23
2019-02-12T16:08:49.214Z,5.95
2019-02-12T16:11:23.657Z,8.20
2019-02-12T16:13:58.867Z,10.98
2019-02-12T16:16:33.375Z,10.03
2019-02-12T16:19:07.849Z,11.90
2019-02-12T16:21:42.614Z,10.55
2019-02-12T16:24:17.176Z,12.40
2019-02-12T16:26:51.414Z,7.90
2019-02-12T16:29:25.650Z,9.53
2019-02-12T16:31:59.024Z,10.60
2019-02-12T16:34:32.896Z,7.92
2019-02-12T16:37:06.725Z,12.45
2019-02-12T16:39:40.951Z,13.18
2019-02-12T16:42:14.651Z,13.75
2019-02-12T16:44:48.388Z,10.43
2019-02-12T16:47:22.757Z,10.55
2019-02-12T16:49:57.011Z,13.30
2019-02-12T16:52:30.928Z,9.25
2019-02-12T16:55:04.609Z,8.40
2019-02-12T16:57:38.377Z,11.63
2019-02-12T17:00:18.500Z,8.08
2019-02-12T17:02:52.192Z,7.20
2019-02-12T17:05:26.067Z,17.10
2019-02-12T17:07:59.996Z,12.98
2019-02-12T17:10:33.687Z,11.18
2019-02-12T17:13:07.487Z,12.82
2019-02-12T17:15:41.695Z,13.13
2019-02-12T17:18:15.450Z,13.08
2019-02-12T17:20:49.665Z,14.68
2019-02-12T17:23:24.056Z,13.85
2019-02-12T17:25:59.744Z,19.77
2019-02-12T17:28:33.927Z,16.55
2019-02-12T17:31:08.368Z,15.72
2019-02-12T17:33:43.888Z,13.90
2019-02-12T17:36:17.638Z,11.68
2019-02-12T17:38:50.075Z,10.35
2019-02-12T17:41:23.971Z,14.58
2019-02-12T17:43:58.135Z,13.40
2019-02-12T17:46:32.120Z,15.23
2019-02-12T17:49:07.368Z,12.10
2019-02-12T17:51:42.668Z,10.72
2019-02-12T17:54:18.381Z,14.28
2019-02-12T17:57:02.004Z,9.23
2019-02-12T17:59:37.379Z,11.45
2019-02-12T18:02:12.659Z,15.05
2019-02-12T18:04:47.279Z,12.00
2019-02-12T18:07:21.006Z,13.15
2019-02-12T18:09:54.791Z,14.03
2019-02-12T18:12:29.664Z,11.85
2019-02-12T18:15:03.590Z,13.68
2019-02-12T18:17:38.939Z,12.68
2019-02-12T18:20:13.004Z,14.63
2019-02-12T18:22:47.559Z,11.28
2019-02-12T18:25:22.269Z,10.23
2019-02-12T18:27:56.673Z,9.73
2019-02-12T18:30:32.082Z,14.23
2019-02-12T18:33:07.035Z,11.75
2019-02-12T18:35:41.427Z,13.30
2019-02-12T18:38:15.217Z,19.10
2019-02-12T18:40:49.561Z,15.53
2019-02-12T18:43:23.419Z,16.80
2019-02-12T18:45:58.583Z,18.70
2019-02-12T18:48:32.859Z,20.57
2019-02-12T18:51:07.036Z,18.57
2019-02-12T18:53:40.765Z,18.27
2019-02-12T18:56:14.930Z,20.45
2019-02-12T18:58:49.201Z,20.68
2019-02-12T19:01:22.465Z,17.70
2019-02-12T19:03:56.267Z,19.50
2019-02-12T19:06:28.826Z,15.65
2019-02-12T19:09:01.515Z,17.20
2019-02-12T19:11:33.952Z,20.17
2019-02-12T19:14:07.394Z,18.50
2019-02-12T19:16:40.292Z,18.87
2019-02-12T19:19:13.536Z,19.75
2019-02-12T19:21:46.693Z,17.15
2019-02-12T19:24:20.339Z,26.25
2019-02-12T19:26:54.769Z,18.07
2019-02-12T19:29:27.320Z,23.45
2019-02-12T19:32:00.281Z,25.85
2019-02-12T19:34:32.787Z,18.27
2019-02-12T19:37:05.705Z,23.12
2019-02-12T19:39:38.755Z,21.00
2019-02-12T19:42:12.576Z,20.62
2019-02-12T19:44:45.916Z,20.00
2019-02-12T19:47:18.677Z,24.75
2019-02-12T19:49:51.599Z,21.40
2019-02-12T19:52:23.917Z,25.75
2019-02-12T19:54:57.067Z,26.12
2019-02-12T19:57:30.429Z,27.45
2019-02-12T20:00:03.344Z,22.90
2019-02-12T20:02:35.782Z,26.35
2019-02-12T20:05:08.672Z,30.85
2019-02-12T20:07:41.910Z,26.68
2019-02-12T20:10:13.958Z,27.42
2019-02-12T20:12:47.669Z,26.95
2019-02-12T20:15:20.225Z,29.02
2019-02-12T20:17:54.582Z,28.47
2019-02-12T20:20:27.470Z,29.77
2019-02-12T20:23:00.965Z,25.80
2019-02-12T20:25:34.249Z,24.80
2019-02-12T20:28:07.113Z,25.68
2019-02-12T20:30:39.835Z,22.58
2019-02-12T20:33:12.838Z,25.08
2019-02-12T20:35:45.554Z,23.05
2019-02-12T20:38:19.619Z,29.12
2019-02-12T20:40:53.203Z,21.33
2019-02-12T20:43:26.535Z,23.55
2019-02-12T20:46:00.789Z,22.55
2019-02-12T20:48:33.395Z,26.05
2019-02-12T20:51:06.190Z,27.62
2019-02-12T20:53:40.102Z,25.50
2019-02-12T20:56:12.831Z,21.23
2019-02-12T20:58:46.643Z,17.35
2019-02-12T21:01:18.982Z,25.88
2019-02-12T21:03:52.647Z,24.80
2019-02-12T21:06:25.628Z,25.27
2019-02-12T21:08:58.287Z,24.63
2019-02-12T21:11:30.774Z,38.70
2019-02-12T21:14:04.071Z,38.63
2019-02-12T21:16:36.994Z,30.97
2019-02-12T21:19:09.914Z,34.70
2019-02-12T21:21:43.775Z,27.52
2019-02-12T21:24:16.712Z,22.60
2019-02-12T21:26:49.147Z,25.43
2019-02-12T21:29:22.417Z,23.83
2019-02-12T21:31:55.213Z,18.77
2019-02-12T21:34:28.295Z,23.83
2019-02-12T21:37:01.599Z,30.45
2019-02-12T21:39:34.610Z,26.10
2019-02-12T21:42:07.551Z,23.47
2019-02-12T21:44:40.563Z,24.15
2019-02-12T21:47:13.719Z,27.90
2019-02-12T21:49:47.222Z,23.50
2019-02-12T21:52:19.590Z,17.65
2019-02-12T21:54:53.447Z,21.07
2019-02-12T21:57:31.556Z,24.32
2019-02-12T22:00:01.186Z,17.23
2019-02-12T22:02:33.239Z,15.23
2019-02-12T22:05:06.174Z,22.77
2019-02-12T22:07:38.670Z,16.20
2019-02-12T22:10:14.698Z,21.02
2019-02-12T22:12:48.309Z,18.12
2019-02-12T22:15:21.990Z,23.40
2019-02-12T22:17:54.856Z,20.23
2019-02-12T22:20:27.332Z,22.10
2019-02-12T22:23:02.001Z,19.23
2019-02-12T22:25:36.089Z,18.73
2019-02-12T22:28:09.450Z,23.80
2019-02-12T22:30:43.389Z,25.55
2019-02-12T22:33:17.422Z,24.87
2019-02-12T22:35:50.705Z,24.02
2019-02-12T22:38:24.520Z,26.75
2019-02-12T22:40:57.850Z,21.20
2019-02-12T22:43:31.956Z,23.83
2019-02-12T22:46:05.643Z,25.72
2019-02-12T22:48:39.219Z,24.37
2019-02-12T22:51:13.452Z,26.62
2019-02-12T22:53:47.796Z,26.87
2019-02-12T22:56:45.563Z,27.35
2019-02-12T22:59:19.345Z,22.52
2019-02-12T23:01:53.359Z,23.73
2019-02-12T23:04:27.297Z,24.75
2019-02-12T23:07:01.041Z,22.93
2019-02-12T23:09:34.880Z,18.37
2019-02-12T23:12:07.701Z,24.57
2019-02-12T23:14:40.906Z,22.85
2019-02-12T23:17:14.486Z,18.73
2019-02-12T23:19:48.551Z,24.67
2019-02-12T23:22:22.813Z,19.30
2019-02-12T23:24:56.825Z,27.22
2019-02-12T23:27:30.481Z,20.02
2019-02-12T23:30:04.186Z,16.27
2019-02-12T23:32:38.318Z,22.02
2019-02-12T23:35:12.451Z,25.95
2019-02-12T23:37:45.314Z,31.27
2019-02-12T23:40:20.255Z,37.55
2019-02-12T23:42:53.974Z,29.82
2019-02-12T23:45:27.216Z,30.02
2019-02-12T23:48:01.492Z,26.57
2019-02-12T23:50:35.456Z,30.17
2019-02-12T23:53:08.811Z,27.82
2019-02-12T23:55:42.807Z,24.40
2019-02-12T23:58:16.361Z,27.50
